createdAt,value
2022-08-08T00:00:59.996Z,94.55
2022-08-08T00:01:00.522Z,94.26
2022-08-08T00:02:03.462Z,94.45
2022-08-08T00:02:51.852Z,94.17
2022-08-08T00:03:51.850Z,94.40
2022-08-08T00:04:53.107Z,94.55
2022-08-08T00:06:02.713Z,94.74
2022-08-08T00:06:51.662Z,94.60
2022-08-08T00:07:51.618Z,94.40
2022-08-08T00:08:51.575Z,94.60
2022-08-08T00:09:52.419Z,94.69
2022-08-08T00:10:51.482Z,95.07
2022-08-08T00:12:07.364Z,95.07
2022-08-08T00:12:56.731Z,95.07
2022-08-08T00:14:16.563Z,94.79
2022-08-08T00:14:59.234Z,94.40
2022-08-08T00:15:57.279Z,94.98
2022-08-08T00:16:51.217Z,94.69
2022-08-08T00:18:03.930Z,94.69
2022-08-08T00:18:51.131Z,94.12
2022-08-08T00:19:51.444Z,94.50
2022-08-08T00:20:51.036Z,95.17
2022-08-08T00:21:50.992Z,94.98
2022-08-08T00:22:50.953Z,95.17
2022-08-08T00:23:51.319Z,94.89
2022-08-08T00:24:50.860Z,94.79
2022-08-08T00:25:51.644Z,94.89
2022-08-08T00:26:50.768Z,94.98
2022-08-08T00:27:50.727Z,95.46
2022-08-08T00:28:50.680Z,95.56
2022-08-08T00:29:50.839Z,95.27
2022-08-08T00:31:00.777Z,95.46
2022-08-08T00:32:15.319Z,95.56
2022-08-08T00:32:50.500Z,95.36
2022-08-08T00:34:18.433Z,95.36
2022-08-08T00:34:50.416Z,95.07
2022-08-08T00:35:50.370Z,95.27
2022-08-08T00:36:51.615Z,95.36
2022-08-08T00:38:02.268Z,95.36
2022-08-08T00:38:51.919Z,95.56
2022-08-08T00:41:09.729Z,95.65
2022-08-08T00:41:11.526Z,95.65
2022-08-08T00:42:07.713Z,96.32
2022-08-08T00:42:50.208Z,96.03
2022-08-08T00:43:55.976Z,96.03
2022-08-08T00:44:51.009Z,96.22
2022-08-08T00:45:49.929Z,96.03
2022-08-08T00:46:57.694Z,96.13
2022-08-08T00:48:02.142Z,96.51
2022-08-08T00:48:59.394Z,96.51
2022-08-08T00:49:58.524Z,96.61
2022-08-08T00:50:53.296Z,96.22
2022-08-08T00:51:51.753Z,96.51
2022-08-08T00:52:51.457Z,96.51
2022-08-08T00:54:13.833Z,96.80
2022-08-08T00:54:49.520Z,96.80
2022-08-08T00:55:52.821Z,96.61
2022-08-08T00:56:49.429Z,96.89
2022-08-08T00:57:58.048Z,97.09
2022-08-08T00:58:54.524Z,96.80
2022-08-08T00:59:49.298Z,96.89
2022-08-08T01:00:50.701Z,96.99
2022-08-08T01:01:49.274Z,97.18
2022-08-08T01:03:58.583Z,96.80
2022-08-08T01:04:02.766Z,96.99
2022-08-08T01:04:49.075Z,96.99
2022-08-08T01:05:59.599Z,97.47
2022-08-08T01:06:48.987Z,96.89
2022-08-08T01:07:55.703Z,97.66
2022-08-08T01:08:52.228Z,97.42
2022-08-08T01:09:49.036Z,97.71
2022-08-08T01:10:50.784Z,97.47
2022-08-08T01:11:52.090Z,97.52
2022-08-08T01:12:48.716Z,97.61
2022-08-08T01:13:52.686Z,97.61
2022-08-08T01:14:53.149Z,97.33
2022-08-08T01:15:54.482Z,97.90
2022-08-08T01:16:48.542Z,97.90
2022-08-08T01:17:53.267Z,97.71
2022-08-08T01:18:53.877Z,97.61
2022-08-08T01:20:01.859Z,98.19
2022-08-08T01:20:48.357Z,98.09
2022-08-08T01:22:07.519Z,98.47
2022-08-08T01:22:48.267Z,98.28
2022-08-08T01:24:06.521Z,99.05
2022-08-08T01:24:50.789Z,98.76
2022-08-08T01:25:48.132Z,99.24
2022-08-08T01:26:49.346Z,99.05
2022-08-08T01:27:48.046Z,98.86
2022-08-08T01:28:48.000Z,99.15
2022-08-08T01:29:59.731Z,99.43
2022-08-08T01:30:47.911Z,99.43
2022-08-08T01:32:13.376Z,99.52
2022-08-08T01:32:52.087Z,99.62
2022-08-08T01:34:00.928Z,99.52
2022-08-08T01:34:47.731Z,99.24
2022-08-08T01:35:47.687Z,99.15
2022-08-08T01:36:48.416Z,99.33
2022-08-08T01:37:57.376Z,99.72
2022-08-08T01:38:47.552Z,99.62
2022-08-08T01:39:47.567Z,99.43
2022-08-08T01:40:47.463Z,99.91
2022-08-08T01:41:47.414Z,99.43
2022-08-08T01:42:47.372Z,99.99
2022-08-08T01:43:47.326Z,99.99
2022-08-08T01:44:50.420Z,99.99
2022-08-08T01:45:50.426Z,99.99
2022-08-08T01:46:47.665Z,99.99
2022-08-08T01:48:15.404Z,99.99
2022-08-08T01:48:48.228Z,99.99
2022-08-08T01:49:47.057Z,99.99
2022-08-08T01:50:50.724Z,99.99
2022-08-08T01:52:51.927Z,99.99
2022-08-08T01:54:02.067Z,99.99
2022-08-08T01:55:16.348Z,99.99
2022-08-08T01:56:04.567Z,99.99
2022-08-08T01:56:28.800Z,99.99
2022-08-08T01:56:47.308Z,99.99
2022-08-08T01:58:11.642Z,99.99
2022-08-08T01:58:48.804Z,99.99
2022-08-08T02:00:02.554Z,99.99
2022-08-08T02:00:48.432Z,99.99
2022-08-08T02:01:54.793Z,99.99
2022-08-08T02:02:46.612Z,99.99
2022-08-08T02:03:55.702Z,99.99
2022-08-08T02:38:54.237Z,99.99
2022-08-08T02:40:00.301Z,99.99
2022-08-08T02:40:54.195Z,99.99
2022-08-08T02:41:58.500Z,99.99
2022-08-08T02:44:35.907Z,99.99
2022-08-08T02:44:39.077Z,99.99
2022-08-08T02:44:57.795Z,99.99
2022-08-08T02:45:56.871Z,99.99
2022-08-08T02:46:53.878Z,99.99
2022-08-08T02:47:55.137Z,99.99
2022-08-08T02:48:53.785Z,99.99
2022-08-08T02:53:05.383Z,99.99
2022-08-08T02:54:05.338Z,99.99
2022-08-08T02:55:05.293Z,99.99
2022-08-08T02:56:05.250Z,99.99
2022-08-08T02:57:05.232Z,99.99
2022-08-08T02:58:05.156Z,99.99
2022-08-08T02:59:17.332Z,99.99
2022-08-08T03:00:26.580Z,99.99
2022-08-08T03:01:05.251Z,99.99
2022-08-08T03:02:05.067Z,99.99
2022-08-08T03:03:04.936Z,99.99
2022-08-08T03:05:04.714Z,99.99
2022-08-08T03:05:09.395Z,99.99
2022-08-08T03:06:04.802Z,99.99
2022-08-08T03:07:07.014Z,99.99
2022-08-08T03:08:04.714Z,99.99
2022-08-08T03:09:04.671Z,99.99
2022-08-08T03:10:04.626Z,99.99
2022-08-08T03:11:05.020Z,99.99
2022-08-08T03:12:05.599Z,99.99
2022-08-08T03:13:07.347Z,99.99
2022-08-08T03:16:01.579Z,99.99
2022-08-08T03:16:02.682Z,99.99
2022-08-08T03:16:05.380Z,99.99
2022-08-08T03:17:04.317Z,99.99
2022-08-08T03:18:06.912Z,99.99
2022-08-08T03:19:04.228Z,99.99
2022-08-08T03:20:04.181Z,99.99
2022-08-08T03:21:09.701Z,99.99
2022-08-08T03:22:04.098Z,99.99
2022-08-08T03:23:04.662Z,99.99
2022-08-08T03:24:04.006Z,99.99
2022-08-08T03:25:03.962Z,99.99
2022-08-08T03:26:03.917Z,99.99
2022-08-08T03:27:03.879Z,99.99
2022-08-08T03:28:03.830Z,99.99
2022-08-08T03:29:03.789Z,99.99
2022-08-08T03:30:03.740Z,99.99
2022-08-08T03:31:07.815Z,99.99
2022-08-08T03:32:06.207Z,99.99
2022-08-08T03:33:08.038Z,99.99
2022-08-08T03:34:03.581Z,99.99
2022-08-08T03:35:03.987Z,99.99
2022-08-08T03:36:03.630Z,99.99
2022-08-08T03:37:10.776Z,99.99
2022-08-08T03:38:58.349Z,99.99
2022-08-08T03:39:15.299Z,99.99
2022-08-08T03:40:03.980Z,99.99
2022-08-08T03:42:03.826Z,99.99
2022-08-08T03:42:28.821Z,99.99
2022-08-08T03:43:16.823Z,99.99
2022-08-08T03:44:03.126Z,99.99
2022-08-08T03:46:06.098Z,99.99
2022-08-08T03:46:08.840Z,99.99
2022-08-08T03:47:14.096Z,99.99
2022-08-08T03:48:02.946Z,99.99
2022-08-08T03:49:09.837Z,99.99
2022-08-08T03:50:02.893Z,99.99
2022-08-08T03:51:02.817Z,99.99
2022-08-08T03:52:02.769Z,99.99
2022-08-08T03:53:02.726Z,99.99
2022-08-08T03:54:02.681Z,99.99
2022-08-08T03:55:11.176Z,99.99
2022-08-08T03:56:04.827Z,99.99
2022-08-08T03:58:29.944Z,99.99
2022-08-08T03:58:33.347Z,99.99
2022-08-08T03:59:02.463Z,99.99
2022-08-08T04:00:11.415Z,99.99
2022-08-08T04:01:24.566Z,99.99
2022-08-08T04:02:23.027Z,99.99
2022-08-08T04:03:03.872Z,99.99
2022-08-08T04:04:02.440Z,99.99
2022-08-08T04:05:02.199Z,99.99
2022-08-08T04:06:02.152Z,99.99
2022-08-08T04:07:02.111Z,99.99
2022-08-08T04:08:02.064Z,99.99
2022-08-08T04:09:10.245Z,99.99
2022-08-08T04:10:05.330Z,99.99
2022-08-08T04:11:01.934Z,99.99
2022-08-08T04:12:01.885Z,99.99
2022-08-08T04:13:08.188Z,99.99
2022-08-08T04:14:03.387Z,99.99
2022-08-08T04:15:01.757Z,99.99
2022-08-08T04:16:05.471Z,99.99
2022-08-08T04:17:01.667Z,99.99
2022-08-08T04:18:01.621Z,99.99
2022-08-08T04:19:01.582Z,99.99
2022-08-08T04:20:01.944Z,99.99
2022-08-08T04:21:01.490Z,99.99
2022-08-08T04:22:01.446Z,99.99
2022-08-08T04:23:03.683Z,99.99
2022-08-08T04:24:05.797Z,99.99
2022-08-08T04:25:02.429Z,99.99
2022-08-08T04:26:06.685Z,99.99
2022-08-08T04:27:01.225Z,99.99
2022-08-08T04:28:34.238Z,99.99
2022-08-08T04:29:01.137Z,99.99
2022-08-08T04:30:18.435Z,99.99
2022-08-08T04:31:01.170Z,99.99
2022-08-08T04:32:01.010Z,99.99
2022-08-08T04:33:00.964Z,99.99
2022-08-08T04:34:00.914Z,99.99
2022-08-08T04:35:01.207Z,99.99
2022-08-08T04:36:00.826Z,99.99
2022-08-08T04:37:01.029Z,99.99
2022-08-08T04:38:00.744Z,99.99
2022-08-08T04:39:47.833Z,99.99
2022-08-08T04:40:06.313Z,99.99
2022-08-08T04:41:00.614Z,99.99
2022-08-08T04:42:00.562Z,99.99
2022-08-08T04:43:01.070Z,99.99
2022-08-08T04:44:00.474Z,99.99
2022-08-08T04:45:00.458Z,99.99
2022-08-08T04:46:00.384Z,99.99
2022-08-08T04:47:00.341Z,99.99
2022-08-08T04:48:00.750Z,99.99
2022-08-08T04:49:00.253Z,99.99
2022-08-08T04:50:04.538Z,99.99
2022-08-08T04:51:00.164Z,99.99
2022-08-08T04:52:00.119Z,99.99
2022-08-08T04:53:04.665Z,99.99
2022-08-08T04:54:40.196Z,99.99
2022-08-08T04:54:59.987Z,99.99
2022-08-08T04:55:59.943Z,99.99
2022-08-08T04:56:59.906Z,99.99
2022-08-08T04:57:59.868Z,99.99
2022-08-08T04:58:59.812Z,99.99
2022-08-08T04:59:59.841Z,99.99
2022-08-08T05:00:59.731Z,99.99
2022-08-08T05:02:00.697Z,99.99
2022-08-08T05:02:59.634Z,99.99
2022-08-08T05:04:10.587Z,99.99
2022-08-08T05:05:00.005Z,99.99
2022-08-08T05:05:59.503Z,99.99
2022-08-08T05:06:59.458Z,99.99
2022-08-08T05:07:59.413Z,99.99
2022-08-08T05:09:02.462Z,99.99
2022-08-08T05:09:59.337Z,99.99
2022-08-08T05:10:59.282Z,99.99
2022-08-08T05:11:59.235Z,99.99
2022-08-08T05:13:01.499Z,99.99
2022-08-08T05:14:02.223Z,99.99
2022-08-08T05:14:59.108Z,99.99
2022-08-08T05:16:48.448Z,99.99
2022-08-08T05:17:00.870Z,99.99
2022-08-08T05:17:58.973Z,99.99
2022-08-08T05:18:58.929Z,99.99
2022-08-08T05:20:09.995Z,99.99
2022-08-08T05:20:58.840Z,99.99
2022-08-08T05:21:59.716Z,99.99
2022-08-08T05:22:58.756Z,99.99
2022-08-08T05:24:04.319Z,99.99
2022-08-08T05:24:58.774Z,99.99
2022-08-08T05:26:00.402Z,99.99
2022-08-08T05:26:58.576Z,99.99
2022-08-08T05:27:58.534Z,99.99
2022-08-08T05:29:06.140Z,99.99
2022-08-08T05:29:58.442Z,99.99
2022-08-08T05:31:08.678Z,99.99
2022-08-08T05:32:05.535Z,99.99
2022-08-08T05:32:58.313Z,99.99
2022-08-08T05:33:58.266Z,99.99
2022-08-08T05:34:58.226Z,99.99
2022-08-08T05:35:58.179Z,99.99
2022-08-08T05:36:58.137Z,99.99
2022-08-08T05:37:58.855Z,99.99
2022-08-08T05:38:58.521Z,99.99
2022-08-08T05:39:58.090Z,99.99
2022-08-08T05:40:58.316Z,99.99
2022-08-08T05:41:57.917Z,99.99
2022-08-08T05:42:57.875Z,99.99
2022-08-08T05:44:03.611Z,99.99
2022-08-08T05:45:00.703Z,99.99
2022-08-08T05:46:01.948Z,99.99
2022-08-08T05:47:03.014Z,99.99
2022-08-08T05:48:00.257Z,99.99
2022-08-08T05:48:57.612Z,99.99
2022-08-08T05:49:57.567Z,99.99
2022-08-08T05:50:58.759Z,99.99
2022-08-08T05:51:57.478Z,99.99
2022-08-08T05:52:57.445Z,99.99
2022-08-08T05:54:26.754Z,99.99
2022-08-08T05:55:02.281Z,99.99
2022-08-08T05:56:11.143Z,99.99
2022-08-08T05:56:57.264Z,99.99
2022-08-08T05:58:06.105Z,99.99
2022-08-08T05:59:03.564Z,99.99
2022-08-08T06:00:19.833Z,99.99
2022-08-08T06:00:58.545Z,99.99
2022-08-08T06:01:58.110Z,99.99
2022-08-08T06:02:57.059Z,99.99
2022-08-08T06:03:57.038Z,99.99
2022-08-08T06:04:56.914Z,99.99
2022-08-08T06:05:58.992Z,99.99
2022-08-08T06:07:00.285Z,99.99
2022-08-08T06:08:02.219Z,99.99
2022-08-08T06:09:00.510Z,99.99
2022-08-08T06:09:59.521Z,99.99
2022-08-08T06:10:56.655Z,99.99
2022-08-08T06:11:56.608Z,99.99
2022-08-08T06:12:56.566Z,99.99
2022-08-08T06:13:56.521Z,99.99
2022-08-08T06:14:57.762Z,99.99
2022-08-08T06:15:56.440Z,99.99
2022-08-08T06:16:56.393Z,99.99
2022-08-08T06:18:20.780Z,99.99
2022-08-08T06:18:56.891Z,99.99
2022-08-08T06:19:56.262Z,99.99
2022-08-08T06:20:57.181Z,99.99
2022-08-08T06:21:56.955Z,99.99
2022-08-08T06:22:57.965Z,99.99
2022-08-08T06:24:02.448Z,99.99
2022-08-08T06:26:35.927Z,99.99
2022-08-08T06:26:55.966Z,99.99
2022-08-08T06:27:55.920Z,99.99
2022-08-08T06:28:55.877Z,99.99
2022-08-08T06:30:00.753Z,99.99
2022-08-08T06:30:55.789Z,99.99
2022-08-08T06:32:10.253Z,99.99
2022-08-08T06:32:55.705Z,99.99
2022-08-08T06:34:26.355Z,99.53
2022-08-08T06:35:11.522Z,99.99
2022-08-08T06:36:06.335Z,99.63
2022-08-08T06:36:55.529Z,99.24
2022-08-08T06:37:56.099Z,99.44
2022-08-08T06:38:55.446Z,98.96
2022-08-08T06:39:55.911Z,98.19
2022-08-08T06:40:55.360Z,97.95
2022-08-08T06:41:55.322Z,98.14
2022-08-08T06:42:55.274Z,97.76
2022-08-08T06:43:57.470Z,97.95
2022-08-08T06:44:55.188Z,97.76
2022-08-08T06:45:55.146Z,97.28
2022-08-08T06:46:55.110Z,96.51
2022-08-08T06:48:00.607Z,96.22
2022-08-08T06:48:55.021Z,96.61
2022-08-08T06:49:57.169Z,95.55
2022-08-08T06:50:54.934Z,95.65
2022-08-08T06:51:58.030Z,95.98
2022-08-08T06:52:54.847Z,95.21
2022-08-08T06:53:56.186Z,94.64
2022-08-08T06:54:54.762Z,94.35
2022-08-08T06:56:02.296Z,94.45
2022-08-08T06:56:54.674Z,94.16
2022-08-08T06:57:57.268Z,93.87
2022-08-08T06:58:54.612Z,93.97
2022-08-08T07:00:12.407Z,94.16
2022-08-08T07:00:54.503Z,93.63
2022-08-08T07:02:26.700Z,93.44
2022-08-08T07:02:54.504Z,92.96
2022-08-08T07:04:37.645Z,92.96
2022-08-08T07:04:54.361Z,93.05
2022-08-08T07:06:01.988Z,92.48
2022-08-08T07:06:54.246Z,92.19
2022-08-08T07:07:55.417Z,92.38
2022-08-08T07:08:54.157Z,91.42
2022-08-08T07:09:59.969Z,91.33
2022-08-08T07:10:54.069Z,91.42
2022-08-08T07:11:54.022Z,90.51
2022-08-08T07:12:53.983Z,90.12
2022-08-08T07:14:00.328Z,90.80
2022-08-08T07:14:53.895Z,90.80
2022-08-08T07:16:05.126Z,90.60
2022-08-08T07:16:54.154Z,90.51
2022-08-08T07:18:00.583Z,89.83
2022-08-08T07:18:55.895Z,89.16
2022-08-08T07:19:53.678Z,88.59
2022-08-08T07:20:53.635Z,89.07
2022-08-08T07:21:53.587Z,88.44
2022-08-08T07:22:53.551Z,88.63
2022-08-08T07:24:01.768Z,88.24
2022-08-08T07:24:53.471Z,87.67
2022-08-08T07:25:54.502Z,87.86
2022-08-08T07:26:53.377Z,87.76
2022-08-08T07:28:02.231Z,87.29
2022-08-08T07:28:53.289Z,87.09
2022-08-08T07:30:01.830Z,86.80
2022-08-08T07:30:53.205Z,86.52
2022-08-08T07:31:53.156Z,85.69
2022-08-08T07:32:53.113Z,85.21
2022-08-08T07:33:59.032Z,85.31
2022-08-08T07:35:00.395Z,85.02
2022-08-08T07:35:54.563Z,84.92
2022-08-08T07:36:52.941Z,84.25
2022-08-08T07:38:04.971Z,83.86
2022-08-08T07:38:53.345Z,83.39
2022-08-08T07:39:57.806Z,83.77
2022-08-08T07:40:52.770Z,84.00
2022-08-08T07:42:03.755Z,83.62
2022-08-08T07:42:52.682Z,83.48
2022-08-08T07:43:53.575Z,82.65
2022-08-08T07:44:52.597Z,82.17
2022-08-08T07:46:18.443Z,81.98
2022-08-08T07:46:52.515Z,82.65
2022-08-08T07:47:52.466Z,82.27
2022-08-08T07:48:52.456Z,82.17
2022-08-08T07:49:52.378Z,81.40
2022-08-08T07:50:52.337Z,82.50
2022-08-08T07:51:53.517Z,81.45
2022-08-08T07:52:52.249Z,81.06
2022-08-08T07:54:02.040Z,81.06
2022-08-08T07:54:52.165Z,80.96
2022-08-08T07:55:52.119Z,80.87
2022-08-08T07:56:52.085Z,80.29
2022-08-08T07:57:52.042Z,80.48
2022-08-08T07:58:51.994Z,80.48
2022-08-08T07:59:51.948Z,80.58
2022-08-08T08:00:51.950Z,80.91
2022-08-08T08:02:32.955Z,80.91
2022-08-08T08:02:51.823Z,80.91
2022-08-08T08:03:51.778Z,80.43
2022-08-08T08:04:52.349Z,80.23
2022-08-08T08:05:51.764Z,80.33
2022-08-08T08:06:51.651Z,78.69
2022-08-08T08:07:53.224Z,78.88
2022-08-08T08:08:52.495Z,79.60
2022-08-08T08:09:51.520Z,79.50
2022-08-08T08:10:51.479Z,79.11
2022-08-08T08:11:52.846Z,78.83
2022-08-08T08:12:51.396Z,78.25
2022-08-08T08:14:08.150Z,79.50
2022-08-08T08:14:51.309Z,79.41
2022-08-08T08:15:51.266Z,79.31
2022-08-08T08:16:51.232Z,79.02
2022-08-08T08:17:55.388Z,78.19
2022-08-08T08:18:51.774Z,77.23
2022-08-08T08:19:55.702Z,77.51
2022-08-08T08:20:51.053Z,76.93
2022-08-08T08:21:56.816Z,77.61
2022-08-08T08:22:50.971Z,77.42
2022-08-08T08:23:51.322Z,76.93
2022-08-08T08:24:50.883Z,75.40
2022-08-08T08:25:55.173Z,75.05
2022-08-08T08:26:52.871Z,74.08
2022-08-08T08:27:50.755Z,73.69
2022-08-08T08:28:50.719Z,74.08
2022-08-08T08:29:51.957Z,74.66
2022-08-08T08:30:50.629Z,74.66
2022-08-08T08:31:54.071Z,74.57
2022-08-08T08:32:51.794Z,74.57
2022-08-08T08:33:50.555Z,74.51
2022-08-08T08:34:50.461Z,73.44
2022-08-08T08:36:18.413Z,74.60
2022-08-08T08:36:51.314Z,73.93
2022-08-08T08:38:14.721Z,73.93
2022-08-08T08:38:50.343Z,72.86
2022-08-08T08:40:00.854Z,72.58
2022-08-08T08:40:51.323Z,72.67
2022-08-08T08:41:50.165Z,72.96
2022-08-08T08:42:50.126Z,72.58
2022-08-08T08:43:50.112Z,72.58
2022-08-08T08:44:50.056Z,71.64
2022-08-08T08:45:50.004Z,72.42
2022-08-08T08:46:50.994Z,71.74
2022-08-08T08:47:49.915Z,71.45
2022-08-08T08:48:50.052Z,71.55
2022-08-08T08:49:49.838Z,71.64
2022-08-08T08:50:49.789Z,71.26
2022-08-08T08:51:51.190Z,71.74
2022-08-08T08:52:59.409Z,71.74
2022-08-08T08:53:54.617Z,72.74
2022-08-08T08:54:49.622Z,71.36
2022-08-08T08:55:49.612Z,71.48
2022-08-08T08:56:49.540Z,71.78
2022-08-08T08:57:49.498Z,70.04
2022-08-08T08:58:50.264Z,69.56
2022-08-08T08:59:59.801Z,70.14
2022-08-08T09:01:04.816Z,70.26
2022-08-08T09:01:49.422Z,69.68
2022-08-08T09:02:49.288Z,69.98
2022-08-08T09:03:50.779Z,68.62
2022-08-08T09:04:50.255Z,68.43
2022-08-08T09:05:54.194Z,68.24
2022-08-08T09:06:50.377Z,67.75
2022-08-08T09:07:51.943Z,67.94
2022-08-08T09:08:52.015Z,67.79
2022-08-08T09:09:57.553Z,67.88
2022-08-08T09:10:48.952Z,67.46
2022-08-08T09:12:01.202Z,67.30
2022-08-08T09:12:48.869Z,67.21
2022-08-08T09:13:48.829Z,67.11
2022-08-08T09:14:48.787Z,67.11
2022-08-08T09:15:48.743Z,66.82
2022-08-08T09:16:49.322Z,66.53
2022-08-08T09:17:55.317Z,66.72
2022-08-08T09:18:48.624Z,66.27
2022-08-08T09:21:57.822Z,66.66
2022-08-08T09:22:01.006Z,66.17
2022-08-08T09:22:05.310Z,66.85
2022-08-08T09:22:48.460Z,66.17
2022-08-08T09:23:48.416Z,65.82
2022-08-08T09:24:48.376Z,65.72
2022-08-08T09:25:54.661Z,64.85
2022-08-08T09:26:49.917Z,64.27
2022-08-08T09:27:57.283Z,64.40
2022-08-08T09:28:48.209Z,65.08
2022-08-08T09:29:52.535Z,64.69
2022-08-08T09:30:48.127Z,63.92
2022-08-08T09:31:56.949Z,63.72
2022-08-08T09:32:50.387Z,64.04
2022-08-08T09:34:14.997Z,63.07
2022-08-08T09:34:50.405Z,61.91
2022-08-08T09:35:49.036Z,60.65
2022-08-08T09:36:51.765Z,60.75
2022-08-08T09:38:01.612Z,61.33
2022-08-08T09:38:53.085Z,62.30
2022-08-08T09:39:47.785Z,62.04
2022-08-08T09:40:55.644Z,60.78
2022-08-08T09:41:54.754Z,60.39
2022-08-08T09:42:51.425Z,60.00
2022-08-08T09:44:05.115Z,59.91
2022-08-08T09:44:47.562Z,60.20
2022-08-08T09:46:00.911Z,60.03
2022-08-08T09:46:57.648Z,59.74
2022-08-08T09:48:02.997Z,59.45
2022-08-08T09:48:50.122Z,58.48
2022-08-08T09:49:50.309Z,59.45
2022-08-08T09:50:50.208Z,59.45
2022-08-08T09:52:06.638Z,59.58
2022-08-08T09:52:58.416Z,60.06
2022-08-08T09:53:56.515Z,59.58
2022-08-08T09:54:47.145Z,59.19
2022-08-08T09:56:04.492Z,57.93
2022-08-08T09:56:47.067Z,57.83
2022-08-08T09:57:47.024Z,57.44
2022-08-08T09:58:46.987Z,56.96
2022-08-08T09:59:57.172Z,57.57
2022-08-08T10:00:53.101Z,57.47
2022-08-08T10:01:58.550Z,57.08
2022-08-08T10:02:46.824Z,55.82
2022-08-08T10:03:46.781Z,55.82
2022-08-08T10:04:47.722Z,55.92
2022-08-08T10:05:47.062Z,55.82
2022-08-08T10:06:46.865Z,55.73
2022-08-08T10:07:46.619Z,56.30
2022-08-08T10:08:46.704Z,56.30
2022-08-08T10:10:00.015Z,56.30
2022-08-08T10:10:50.930Z,55.63
2022-08-08T10:12:27.507Z,55.46
2022-08-08T10:12:54.244Z,55.27
2022-08-08T10:13:46.383Z,55.27
2022-08-08T10:14:46.343Z,54.97
2022-08-08T10:15:59.281Z,55.75
2022-08-08T10:16:46.795Z,55.46
2022-08-08T10:18:06.730Z,56.24
2022-08-08T10:18:46.178Z,55.55
2022-08-08T10:19:58.237Z,55.94
2022-08-08T10:20:58.147Z,56.34
2022-08-08T10:21:51.038Z,56.14
2022-08-08T10:22:54.591Z,55.46
2022-08-08T10:23:56.069Z,54.32
2022-08-08T10:24:45.937Z,54.32
2022-08-08T10:25:56.902Z,55.00
2022-08-08T10:26:58.563Z,55.19
2022-08-08T10:27:45.818Z,55.98
2022-08-08T10:28:45.776Z,54.71
2022-08-08T10:29:58.495Z,55.49
2022-08-08T10:30:59.904Z,55.41
2022-08-08T10:31:47.441Z,54.05
2022-08-08T10:32:48.251Z,53.57
2022-08-08T10:34:19.858Z,53.77
2022-08-08T10:34:46.382Z,53.18
2022-08-08T10:36:21.049Z,52.40
2022-08-08T10:36:45.458Z,52.33
2022-08-08T10:37:45.417Z,51.75
2022-08-08T10:38:46.446Z,52.23
2022-08-08T10:39:54.422Z,52.65
2022-08-08T10:40:45.299Z,52.72
2022-08-08T10:42:14.688Z,52.53
2022-08-08T10:42:45.415Z,52.55
2022-08-08T10:43:45.179Z,51.48
2022-08-08T10:44:45.691Z,52.16
2022-08-08T10:45:55.891Z,51.87
2022-08-08T10:46:46.233Z,51.80
2022-08-08T10:47:48.755Z,51.87
2022-08-08T10:48:57.559Z,51.02
2022-08-08T10:50:01.949Z,51.51
2022-08-08T10:50:44.902Z,51.02
2022-08-08T10:51:51.313Z,51.51
2022-08-08T10:52:44.824Z,51.67
2022-08-08T10:53:57.444Z,51.41
2022-08-08T10:54:44.782Z,51.02
2022-08-08T10:55:46.805Z,51.70
2022-08-08T10:56:44.666Z,50.34
2022-08-08T10:57:50.501Z,51.19
2022-08-08T10:58:47.356Z,51.12
2022-08-08T10:59:44.543Z,51.12
2022-08-08T11:00:52.383Z,50.92
2022-08-08T11:01:44.526Z,51.41
2022-08-08T11:02:44.649Z,51.02
2022-08-08T11:04:00.321Z,50.34
2022-08-08T11:04:44.348Z,50.43
2022-08-08T11:05:44.308Z,50.36
2022-08-08T11:06:47.455Z,50.82
2022-08-08T11:08:37.006Z,50.75
2022-08-08T11:08:53.093Z,50.85
2022-08-08T11:09:44.152Z,50.16
2022-08-08T11:10:44.112Z,49.78
2022-08-08T11:12:04.871Z,49.58
2022-08-08T11:12:44.035Z,49.80
2022-08-08T11:13:52.173Z,49.61
2022-08-08T11:14:43.964Z,49.61
2022-08-08T11:15:52.351Z,49.90
2022-08-08T11:16:46.749Z,49.22
2022-08-08T11:17:59.513Z,50.09
2022-08-08T11:18:43.801Z,49.90
2022-08-08T11:19:46.656Z,49.61
2022-08-08T11:20:43.720Z,49.51
2022-08-08T11:21:43.686Z,49.61
2022-08-08T11:22:43.646Z,49.54
2022-08-08T11:23:43.612Z,48.46
2022-08-08T11:24:43.563Z,48.66
2022-08-08T11:25:52.100Z,48.66
2022-08-08T11:26:56.372Z,48.46
2022-08-08T11:27:44.584Z,47.97
2022-08-08T11:28:43.415Z,48.17
2022-08-08T11:30:04.125Z,48.36
2022-08-08T11:30:50.525Z,48.46
2022-08-08T11:31:48.077Z,49.17
2022-08-08T11:32:47.488Z,48.97
2022-08-08T11:33:53.015Z,48.85
2022-08-08T11:35:07.917Z,49.56
2022-08-08T11:35:43.556Z,49.17
2022-08-08T11:36:43.098Z,48.58
2022-08-08T11:38:39.341Z,48.68
2022-08-08T11:38:53.724Z,48.68
2022-08-08T11:39:43.056Z,48.78
2022-08-08T11:40:42.944Z,48.88
2022-08-08T11:41:42.907Z,48.41
2022-08-08T11:42:42.871Z,48.41
2022-08-08T11:43:42.829Z,47.61
2022-08-08T11:44:42.792Z,48.29
2022-08-08T11:46:06.720Z,48.71
2022-08-08T11:46:42.711Z,48.44
2022-08-08T11:48:04.994Z,47.24
2022-08-08T11:48:45.018Z,47.14
2022-08-08T11:49:42.598Z,46.75
2022-08-08T11:50:42.557Z,47.53
2022-08-08T11:51:50.401Z,46.66
2022-08-08T11:52:45.402Z,46.95
2022-08-08T11:53:42.783Z,46.26
2022-08-08T11:54:46.241Z,46.85
2022-08-08T11:55:42.366Z,47.14
2022-08-08T11:56:42.495Z,47.73
2022-08-08T11:57:42.290Z,47.85
2022-08-08T11:58:42.250Z,48.05
2022-08-08T12:00:01.306Z,47.17
2022-08-08T12:00:42.171Z,46.29
2022-08-08T12:01:42.136Z,45.80
2022-08-08T12:02:42.240Z,46.29
2022-08-08T12:03:42.122Z,46.70
2022-08-08T12:04:42.017Z,47.09
2022-08-08T12:05:41.981Z,46.80
2022-08-08T12:06:43.577Z,46.72
2022-08-08T12:07:41.904Z,46.80
2022-08-08T12:08:41.869Z,46.70
2022-08-08T12:09:59.662Z,46.70
2022-08-08T12:10:41.789Z,46.99
2022-08-08T12:11:41.815Z,47.11
2022-08-08T12:12:41.714Z,47.02
2022-08-08T12:14:03.006Z,45.94
2022-08-08T12:14:41.645Z,47.11
2022-08-08T12:15:46.729Z,45.76
2022-08-08T12:16:47.206Z,46.06
2022-08-08T12:17:50.972Z,45.89
2022-08-08T12:18:41.487Z,44.81
2022-08-08T12:19:51.891Z,44.34
2022-08-08T12:20:41.408Z,44.17
2022-08-08T12:21:59.383Z,43.98
2022-08-08T12:22:45.616Z,43.70
2022-08-08T12:23:51.680Z,43.43
2022-08-08T12:24:41.254Z,42.08
2022-08-08T12:25:52.528Z,42.10
2022-08-08T12:26:41.545Z,42.02
2022-08-08T12:27:45.099Z,41.16
2022-08-08T12:28:41.103Z,40.56
2022-08-08T12:29:45.128Z,40.41
2022-08-08T12:30:41.040Z,40.61
2022-08-08T12:31:53.889Z,39.94
2022-08-08T12:32:40.953Z,39.15
2022-08-08T12:34:02.662Z,38.87
2022-08-08T12:34:40.878Z,38.49
2022-08-08T12:35:40.841Z,37.63
2022-08-08T12:36:46.435Z,36.74
2022-08-08T12:37:43.418Z,37.05
2022-08-08T12:38:40.727Z,35.99
2022-08-08T12:39:59.987Z,35.30
2022-08-08T12:40:44.425Z,35.02
2022-08-08T12:41:57.222Z,35.14
2022-08-08T12:42:47.699Z,35.43
2022-08-08T12:43:46.518Z,34.06
2022-08-08T12:44:40.508Z,34.36
2022-08-08T12:45:58.735Z,34.88
2022-08-08T12:46:40.430Z,34.30
2022-08-08T12:48:04.247Z,33.42
2022-08-08T12:48:40.354Z,34.01
2022-08-08T12:49:43.703Z,34.13
2022-08-08T12:50:40.277Z,34.15
2022-08-08T12:51:40.243Z,34.64
2022-08-08T12:52:40.441Z,33.37
2022-08-08T12:53:42.137Z,32.00
2022-08-08T12:54:46.002Z,31.92
2022-08-08T12:56:06.120Z,32.51
2022-08-08T12:56:40.055Z,31.54
2022-08-08T12:57:49.819Z,31.34
2022-08-08T12:58:39.981Z,31.54
2022-08-08T12:59:45.127Z,30.74
2022-08-08T13:00:39.905Z,31.34
2022-08-08T13:01:39.903Z,31.44
2022-08-08T13:02:42.120Z,31.65
2022-08-08T13:03:39.800Z,30.94
2022-08-08T13:04:39.757Z,31.54
2022-08-08T13:06:03.697Z,31.31
2022-08-08T13:06:39.688Z,31.49
2022-08-08T13:08:03.342Z,31.87
2022-08-08T13:08:39.612Z,32.24
2022-08-08T13:09:43.326Z,33.01
2022-08-08T13:10:55.596Z,33.87
2022-08-08T13:12:27.112Z,34.72
2022-08-08T13:12:44.443Z,34.99
2022-08-08T13:13:39.424Z,35.46
2022-08-08T13:14:39.386Z,35.23
2022-08-08T13:15:39.372Z,36.20
2022-08-08T13:16:39.309Z,36.87
2022-08-08T13:18:01.450Z,37.24
2022-08-08T13:18:48.868Z,37.72
2022-08-08T13:19:41.218Z,38.19
2022-08-08T13:20:39.161Z,39.15
2022-08-08T13:21:53.752Z,39.54
2022-08-08T13:22:39.097Z,40.31
2022-08-08T13:23:41.735Z,40.01
2022-08-08T13:24:47.883Z,40.48
2022-08-08T13:25:38.972Z,39.61
2022-08-08T13:26:38.948Z,39.39
2022-08-08T13:27:38.904Z,39.86
2022-08-08T13:28:42.139Z,40.74
2022-08-08T13:29:41.093Z,41.41